createdAt,value
2018-09-09T00:02:06.214Z,99.90
2018-09-09T00:04:34.469Z,99.90
2018-09-09T00:07:03.044Z,99.90
2018-09-09T00:09:37.767Z,99.90
2018-09-09T00:12:05.985Z,99.90
2018-09-09T00:14:37.360Z,99.90
2018-09-09T00:17:05.610Z,99.90
2018-09-09T00:19:33.825Z,99.90
2018-09-09T00:22:02.407Z,99.90
2018-09-09T00:24:30.674Z,99.90
2018-09-09T00:26:58.873Z,99.90
2018-09-09T00:29:27.101Z,99.90
2018-09-09T00:31:55.325Z,99.90
2018-09-09T00:34:24.014Z,99.90
2018-09-09T00:36:52.758Z,99.90
2018-09-09T00:39:21.266Z,99.90
2018-09-09T00:41:49.505Z,99.90
2018-09-09T00:44:17.745Z,99.90
2018-09-09T00:46:46.023Z,99.90
2018-09-09T00:49:20.001Z,99.90
2018-09-09T00:51:53.649Z,99.90
2018-09-09T00:54:22.299Z,99.90
2018-09-09T00:56:50.538Z,99.90
2018-09-09T00:59:19.675Z,99.90
2018-09-09T01:01:48.467Z,99.90
2018-09-09T01:04:16.762Z,99.90
2018-09-09T01:06:45.314Z,99.90
2018-09-09T01:09:14.311Z,99.90
2018-09-09T01:11:42.533Z,99.90
2018-09-09T01:14:10.769Z,99.90
2018-09-09T01:16:39.475Z,99.90
2018-09-09T01:19:07.736Z,99.90
2018-09-09T01:21:36.325Z,99.90
2018-09-09T01:24:05.226Z,99.90
2018-09-09T01:26:33.479Z,99.90
2018-09-09T01:29:02.154Z,99.90
2018-09-09T01:31:35.086Z,99.90
2018-09-09T01:34:03.382Z,99.90
2018-09-09T01:36:32.118Z,99.90
2018-09-09T01:39:07.724Z,99.90
2018-09-09T01:41:35.962Z,99.90
2018-09-09T01:44:04.195Z,99.90
2018-09-09T01:46:32.582Z,99.90
2018-09-09T01:49:01.155Z,99.90
2018-09-09T01:51:29.400Z,99.90
2018-09-09T01:53:57.926Z,99.90
2018-09-09T01:56:26.379Z,99.90
2018-09-09T01:58:54.882Z,99.90
2018-09-09T02:01:23.100Z,99.90
2018-09-09T02:03:51.350Z,99.90
2018-09-09T02:06:19.877Z,99.90
2018-09-09T02:08:53.457Z,99.90
2018-09-09T02:11:21.674Z,99.90
2018-09-09T02:13:49.933Z,99.90
2018-09-09T02:16:18.765Z,99.90
2018-09-09T02:18:46.986Z,99.90
2018-09-09T02:21:15.560Z,99.90
2018-09-09T02:23:43.998Z,99.90
2018-09-09T02:26:12.215Z,99.90
2018-09-09T02:28:40.971Z,99.90
2018-09-09T02:31:09.763Z,99.90
2018-09-09T02:33:37.977Z,99.90
2018-09-09T02:36:06.844Z,99.90
2018-09-09T02:38:35.697Z,99.90
2018-09-09T02:41:04.109Z,99.90
2018-09-09T02:43:32.424Z,99.90
2018-09-09T02:46:00.571Z,99.90
2018-09-09T02:48:29.214Z,99.90
2018-09-09T02:50:57.869Z,99.90
2018-09-09T02:53:26.450Z,99.90
2018-09-09T02:55:54.661Z,99.90
2018-09-09T02:58:22.881Z,99.90
2018-09-09T03:00:56.951Z,99.90
2018-09-09T03:03:25.179Z,99.90
2018-09-09T03:05:54.010Z,99.90
2018-09-09T03:08:22.228Z,99.90
2018-09-09T03:10:54.704Z,99.90
2018-09-09T03:13:22.979Z,99.90
2018-09-09T03:15:51.818Z,99.90
2018-09-09T03:18:20.038Z,99.90
2018-09-09T03:20:48.877Z,99.90
2018-09-09T03:23:17.694Z,99.90
2018-09-09T03:25:45.930Z,99.90
2018-09-09T03:28:15.142Z,99.90
2018-09-09T03:30:43.937Z,99.90
2018-09-09T03:33:12.162Z,99.90
2018-09-09T03:38:14.402Z,99.90
2018-09-09T03:40:49.848Z,99.90
2018-09-09T03:43:18.074Z,99.90
2018-09-09T03:45:46.318Z,99.90
2018-09-09T03:48:14.553Z,99.90
2018-09-09T03:50:42.769Z,99.90
2018-09-09T03:53:11.561Z,99.90
2018-09-09T03:55:39.790Z,99.90
2018-09-09T03:58:08.018Z,99.90
2018-09-09T04:00:36.301Z,99.90
2018-09-09T04:03:12.073Z,99.90
2018-09-09T04:05:40.595Z,99.90
2018-09-09T04:08:08.827Z,99.90
2018-09-09T04:10:37.102Z,99.90
2018-09-09T04:13:05.386Z,99.90
2018-09-09T04:15:34.302Z,99.90
2018-09-09T04:18:02.963Z,99.90
2018-09-09T04:20:31.789Z,99.90
2018-09-09T04:23:03.902Z,99.90
2018-09-09T04:25:32.157Z,99.90
2018-09-09T04:28:00.867Z,99.90
2018-09-09T04:30:29.084Z,99.90
2018-09-09T04:32:57.309Z,99.90
2018-09-09T04:35:25.613Z,99.90
2018-09-09T04:37:54.605Z,99.90
2018-09-09T04:40:23.002Z,99.90
2018-09-09T04:42:51.267Z,99.90
2018-09-09T04:45:19.462Z,99.90
2018-09-09T04:47:47.840Z,99.90
2018-09-09T04:50:16.441Z,99.90
2018-09-09T04:52:45.246Z,99.90
2018-09-09T04:55:13.482Z,99.90
2018-09-09T04:57:41.713Z,99.90
2018-09-09T05:00:10.097Z,99.90
2018-09-09T05:02:38.632Z,99.90
2018-09-09T05:05:11.250Z,99.90
2018-09-09T05:07:39.498Z,99.90
2018-09-09T05:10:07.722Z,99.90
2018-09-09T05:12:35.974Z,99.90
2018-09-09T05:15:05.330Z,99.90
2018-09-09T05:17:34.589Z,99.90
2018-09-09T05:20:04.109Z,99.90
2018-09-09T05:22:32.325Z,99.90
2018-09-09T05:25:01.034Z,99.90
2018-09-09T05:27:30.197Z,99.90
2018-09-09T05:29:58.477Z,99.90
2018-09-09T05:32:26.718Z,99.90
2018-09-09T05:34:55.661Z,99.90
2018-09-09T05:37:24.314Z,99.90
2018-09-09T05:39:52.734Z,99.90
2018-09-09T05:42:21.059Z,99.90
2018-09-09T05:44:49.362Z,99.90
2018-09-09T05:47:17.595Z,99.90
2018-09-09T05:49:46.390Z,99.90
2018-09-09T05:52:15.445Z,99.90
2018-09-09T05:54:43.711Z,99.90
2018-09-09T05:57:13.862Z,99.90
2018-09-09T05:59:42.101Z,99.90
2018-09-09T06:02:10.312Z,99.90
2018-09-09T06:04:38.798Z,99.90
2018-09-09T06:07:07.962Z,99.90
2018-09-09T06:09:36.502Z,99.90
2018-09-09T06:12:04.773Z,99.90
2018-09-09T06:14:36.698Z,99.90
2018-09-09T06:17:05.163Z,99.90
2018-09-09T06:19:33.389Z,99.90
2018-09-09T06:22:02.465Z,99.90
2018-09-09T06:24:31.262Z,99.90
2018-09-09T06:26:59.933Z,99.90
2018-09-09T06:29:28.657Z,99.90
2018-09-09T06:31:56.896Z,99.90
2018-09-09T06:34:25.163Z,99.90
2018-09-09T06:36:53.907Z,99.90
2018-09-09T06:39:22.786Z,99.90
2018-09-09T06:41:51.094Z,99.90
2018-09-09T06:44:19.334Z,99.90
2018-09-09T06:46:47.595Z,99.90
2018-09-09T06:49:16.439Z,99.90
2018-09-09T06:51:44.657Z,99.90
2018-09-09T06:54:13.367Z,99.90
2018-09-09T06:56:41.613Z,99.90
2018-09-09T06:59:10.690Z,99.90
2018-09-09T07:01:38.926Z,99.90
2018-09-09T07:04:07.182Z,99.90
2018-09-09T07:06:36.046Z,99.90
2018-09-09T07:09:06.030Z,99.90
2018-09-09T07:11:34.363Z,99.90
2018-09-09T07:14:02.969Z,99.90
2018-09-09T07:16:31.397Z,99.90
2018-09-09T07:19:00.134Z,99.90
2018-09-09T07:21:34.599Z,99.90
2018-09-09T07:24:04.680Z,99.90
2018-09-09T07:26:33.498Z,99.90
2018-09-09T07:29:02.116Z,99.90
2018-09-09T07:31:30.374Z,99.90
2018-09-09T07:33:58.626Z,99.90
2018-09-09T07:36:27.262Z,99.90
2018-09-09T07:38:55.489Z,99.90
2018-09-09T07:41:24.212Z,99.90
2018-09-09T07:43:52.438Z,99.90
2018-09-09T07:46:21.328Z,99.90
2018-09-09T07:48:49.558Z,99.90
2018-09-09T07:51:17.794Z,99.90
2018-09-09T07:53:46.659Z,99.90
2018-09-09T07:56:14.904Z,99.00
2018-09-09T07:58:43.138Z,99.90
2018-09-09T08:01:11.396Z,98.50
2018-09-09T08:03:39.658Z,94.20
2018-09-09T08:06:08.612Z,92.00
2018-09-09T08:08:36.844Z,92.10
2018-09-09T08:11:05.035Z,90.80
2018-09-09T08:13:33.572Z,88.80
2018-09-09T08:16:02.640Z,89.80
2018-09-09T08:18:30.885Z,87.30
2018-09-09T08:20:59.688Z,87.70
2018-09-09T08:23:28.243Z,89.70
2018-09-09T08:25:56.518Z,88.90
2018-09-09T08:28:25.450Z,84.30
2018-09-09T08:30:54.255Z,83.20
2018-09-09T08:33:22.478Z,82.30
2018-09-09T08:35:51.406Z,79.00
2018-09-09T08:38:20.070Z,74.80
2018-09-09T08:40:48.766Z,72.40
2018-09-09T08:43:17.015Z,76.10
2018-09-09T08:45:45.242Z,75.20
2018-09-09T08:48:13.487Z,71.80
2018-09-09T08:50:41.739Z,69.80
2018-09-09T08:53:10.185Z,73.50
2018-09-09T08:55:38.417Z,76.20
2018-09-09T08:58:06.627Z,69.90
2018-09-09T09:00:34.877Z,67.30
2018-09-09T09:03:03.143Z,67.20
2018-09-09T09:05:32.019Z,70.20
2018-09-09T09:08:00.404Z,67.10
2018-09-09T09:10:28.489Z,66.40
2018-09-09T09:12:57.119Z,65.90
2018-09-09T09:15:25.905Z,64.30
2018-09-09T09:18:00.846Z,65.50
2018-09-09T09:20:29.331Z,61.70
2018-09-09T09:23:09.618Z,61.20
2018-09-09T09:25:42.074Z,64.60
2018-09-09T09:28:10.481Z,68.80
2018-09-09T09:30:38.723Z,65.70
2018-09-09T09:33:06.963Z,62.50
2018-09-09T09:38:14.733Z,61.20
2018-09-09T09:40:43.174Z,59.90
2018-09-09T09:43:12.197Z,59.40
2018-09-09T09:45:40.477Z,58.40
2018-09-09T09:48:08.733Z,57.90
2018-09-09T09:50:37.166Z,57.00
2018-09-09T09:53:06.103Z,61.60
2018-09-09T09:55:34.434Z,58.40
2018-09-09T09:58:02.618Z,60.00
2018-09-09T10:00:36.114Z,56.80
2018-09-09T10:03:04.813Z,57.70
2018-09-09T10:05:34.159Z,56.40
2018-09-09T10:10:39.050Z,56.50
2018-09-09T10:13:07.638Z,54.90
2018-09-09T10:15:36.162Z,55.00
2018-09-09T10:18:04.446Z,56.30
2018-09-09T10:20:33.213Z,56.60
2018-09-09T10:23:03.809Z,55.40
2018-09-09T10:25:32.106Z,56.00
2018-09-09T10:28:00.672Z,54.20
2018-09-09T10:30:28.968Z,55.00
2018-09-09T10:32:57.211Z,54.70
2018-09-09T10:35:25.832Z,54.40
2018-09-09T10:37:54.566Z,54.10
2018-09-09T10:40:23.243Z,54.80
2018-09-09T10:42:51.950Z,58.20
2018-09-09T10:48:05.829Z,53.20
2018-09-09T10:50:34.083Z,54.30
2018-09-09T10:53:03.092Z,53.70
2018-09-09T10:55:31.282Z,51.30
2018-09-09T10:57:59.986Z,55.90
2018-09-09T11:00:28.210Z,54.80
2018-09-09T11:02:56.448Z,55.40
2018-09-09T11:05:25.330Z,53.00
2018-09-09T11:07:53.597Z,55.60
2018-09-09T11:10:21.822Z,56.30
2018-09-09T11:12:50.085Z,58.20
2018-09-09T11:15:18.788Z,60.60
2018-09-09T11:17:47.025Z,64.50
2018-09-09T11:20:15.939Z,63.20
2018-09-09T11:22:44.226Z,59.40
2018-09-09T11:25:12.688Z,60.00
2018-09-09T11:27:41.298Z,62.50
2018-09-09T11:30:10.173Z,59.30
2018-09-09T11:32:38.451Z,61.10
2018-09-09T11:35:06.958Z,68.10
2018-09-09T11:37:35.425Z,64.10
2018-09-09T11:40:03.990Z,61.00
2018-09-09T11:42:32.783Z,66.10
2018-09-09T11:45:01.024Z,68.30
2018-09-09T11:47:29.806Z,65.20
2018-09-09T11:49:58.085Z,65.70
2018-09-09T11:52:26.966Z,62.70
2018-09-09T11:54:55.875Z,66.80
2018-09-09T11:57:25.069Z,65.80
2018-09-09T11:59:53.310Z,68.10
2018-09-09T12:02:21.551Z,68.60
2018-09-09T12:04:50.078Z,67.10
2018-09-09T12:07:18.772Z,65.60
2018-09-09T12:09:46.975Z,62.40
2018-09-09T12:14:53.842Z,65.30
2018-09-09T12:17:22.057Z,68.40
2018-09-09T12:19:51.657Z,65.40
2018-09-09T12:22:19.922Z,63.80
2018-09-09T12:24:49.032Z,63.30
2018-09-09T12:27:17.537Z,66.60
2018-09-09T12:29:45.988Z,66.20
2018-09-09T12:32:14.288Z,60.10
2018-09-09T12:34:52.423Z,57.90
2018-09-09T12:37:20.998Z,58.10
2018-09-09T12:39:49.564Z,59.00
2018-09-09T12:42:18.207Z,58.40
2018-09-09T12:44:51.962Z,63.60
2018-09-09T12:47:25.591Z,60.20
2018-09-09T12:49:54.337Z,63.90
2018-09-09T12:52:23.009Z,58.60
2018-09-09T12:54:51.258Z,63.10
2018-09-09T12:57:19.525Z,61.40
2018-09-09T12:59:51.890Z,62.90
2018-09-09T13:02:20.132Z,56.50
2018-09-09T13:04:48.605Z,57.40
2018-09-09T13:07:17.253Z,58.20
2018-09-09T13:09:45.490Z,59.10
2018-09-09T13:12:13.738Z,59.00
2018-09-09T13:14:42.487Z,59.30
2018-09-09T13:17:10.718Z,57.00
2018-09-09T13:19:38.962Z,58.70
2018-09-09T13:22:07.408Z,58.10
2018-09-09T13:24:36.457Z,59.50
2018-09-09T13:27:05.578Z,56.30
2018-09-09T13:29:33.823Z,51.40
2018-09-09T13:32:02.061Z,53.30
2018-09-09T13:34:30.374Z,56.10
2018-09-09T13:36:59.339Z,54.20
2018-09-09T13:39:28.093Z,54.20
2018-09-09T13:41:56.581Z,53.80
2018-09-09T13:44:24.825Z,55.40
2018-09-09T13:46:53.205Z,56.10
2018-09-09T13:49:22.146Z,55.80
2018-09-09T13:51:50.395Z,56.80
2018-09-09T13:54:19.047Z,59.60
2018-09-09T13:56:47.299Z,62.50
2018-09-09T13:59:15.549Z,59.80
2018-09-09T14:01:43.926Z,58.40
2018-09-09T14:04:12.631Z,59.10
2018-09-09T14:06:41.465Z,57.90
2018-09-09T14:09:10.110Z,57.20
2018-09-09T14:11:38.423Z,56.60
2018-09-09T14:14:06.939Z,57.80
2018-09-09T14:16:35.605Z,57.60
2018-09-09T14:19:04.378Z,60.20
2018-09-09T14:21:33.032Z,57.10
2018-09-09T14:24:01.621Z,58.40
2018-09-09T14:26:29.869Z,59.00
2018-09-09T14:28:58.487Z,60.10
2018-09-09T14:31:26.714Z,62.40
2018-09-09T14:33:54.970Z,58.70
2018-09-09T14:36:23.963Z,63.00
2018-09-09T14:38:52.254Z,63.30
2018-09-09T14:41:20.856Z,59.60
2018-09-09T14:43:49.150Z,60.10
2018-09-09T14:46:17.430Z,62.10
2018-09-09T14:48:46.114Z,65.90
2018-09-09T14:51:14.367Z,66.10
2018-09-09T14:53:42.906Z,61.20
2018-09-09T14:56:11.157Z,60.80
2018-09-09T14:58:39.513Z,63.00
2018-09-09T15:01:07.934Z,64.30
2018-09-09T15:03:36.470Z,61.30
2018-09-09T15:06:04.955Z,64.30
2018-09-09T15:08:33.208Z,61.60
2018-09-09T15:11:01.513Z,62.50
2018-09-09T15:13:29.803Z,63.20
2018-09-09T15:16:01.869Z,62.60
2018-09-09T15:18:30.106Z,60.00
2018-09-09T15:20:58.421Z,58.40
2018-09-09T15:23:27.129Z,58.50
2018-09-09T15:25:55.418Z,58.60
2018-09-09T15:28:24.456Z,61.60
2018-09-09T15:30:53.185Z,64.00
2018-09-09T15:33:21.455Z,65.90
2018-09-09T15:35:50.342Z,63.80
2018-09-09T15:38:18.590Z,64.70
2018-09-09T15:40:47.325Z,65.90
2018-09-09T15:43:15.778Z,64.00
2018-09-09T15:45:44.038Z,65.40
2018-09-09T15:48:12.341Z,68.20
2018-09-09T15:50:41.083Z,67.90
2018-09-09T15:53:09.691Z,71.40
2018-09-09T15:55:38.644Z,68.80
2018-09-09T15:58:07.235Z,65.20
2018-09-09T16:00:36.146Z,64.90
2018-09-09T16:03:04.497Z,65.90
2018-09-09T16:05:33.058Z,67.20
2018-09-09T16:08:01.337Z,65.90
2018-09-09T16:11:54.908Z,69.30
2018-09-09T16:14:23.639Z,71.00
2018-09-09T16:16:52.262Z,71.80
2018-09-09T16:19:20.630Z,67.80
2018-09-09T16:21:48.881Z,74.00
2018-09-09T16:24:17.886Z,73.60
2018-09-09T16:26:49.239Z,73.00
2018-09-09T16:29:17.498Z,75.00
2018-09-09T16:31:45.752Z,77.40
2018-09-09T16:34:14.050Z,77.10
2018-09-09T16:36:42.610Z,75.70
2018-09-09T16:39:11.195Z,76.00
2018-09-09T16:41:40.117Z,73.60
2018-09-09T16:44:08.377Z,76.60
2018-09-09T16:46:36.768Z,76.90
2018-09-09T16:49:05.399Z,78.10
2018-09-09T16:51:34.230Z,77.40
2018-09-09T16:54:08.554Z,76.20
2018-09-09T16:56:37.422Z,78.00
2018-09-09T16:59:05.994Z,78.80
2018-09-09T17:01:34.593Z,77.30
2018-09-09T17:04:03.044Z,76.70
2018-09-09T17:06:31.550Z,75.30
2018-09-09T17:08:59.765Z,75.60
2018-09-09T17:11:28.307Z,75.60
2018-09-09T17:13:56.598Z,78.70
2018-09-09T17:16:25.307Z,78.70
2018-09-09T17:18:53.678Z,79.10
2018-09-09T17:21:22.025Z,80.20
2018-09-09T17:23:50.285Z,78.10
2018-09-09T17:26:18.530Z,78.20
2018-09-09T17:28:47.339Z,80.00
2018-09-09T17:31:15.661Z,78.80
2018-09-09T17:33:43.897Z,81.50
2018-09-09T17:36:12.766Z,83.90
2018-09-09T17:38:40.985Z,86.70
2018-09-09T17:41:09.522Z,85.90
2018-09-09T17:43:38.238Z,86.70
2018-09-09T17:46:06.828Z,87.70
2018-09-09T17:48:37.433Z,89.10
2018-09-09T17:51:05.684Z,89.80
2018-09-09T17:53:34.809Z,90.70
2018-09-09T17:56:07.036Z,91.20
2018-09-09T17:58:35.256Z,92.00
2018-09-09T18:01:04.519Z,92.60
2018-09-09T18:03:32.740Z,92.90
2018-09-09T18:06:01.492Z,93.30
2018-09-09T18:08:29.728Z,94.50
2018-09-09T18:10:58.027Z,95.30
2018-09-09T18:13:26.242Z,95.90
2018-09-09T18:15:54.837Z,96.80
2018-09-09T18:18:23.090Z,97.80
2018-09-09T18:20:51.433Z,98.50
2018-09-09T18:23:19.706Z,98.70
2018-09-09T18:25:47.919Z,99.90
2018-09-09T18:28:16.521Z,99.90
2018-09-09T18:30:44.759Z,99.90
2018-09-09T18:33:13.237Z,99.90
2018-09-09T18:35:47.881Z,99.90
2018-09-09T18:38:16.131Z,99.90
2018-09-09T18:40:44.771Z,99.90
2018-09-09T18:43:13.550Z,99.90
2018-09-09T18:45:41.786Z,99.90
2018-09-09T18:48:10.129Z,99.90
2018-09-09T18:50:38.861Z,99.90
2018-09-09T18:53:07.645Z,99.90
2018-09-09T18:55:36.366Z,99.90
2018-09-09T19:00:34.804Z,99.90
2018-09-09T19:03:03.089Z,99.90
2018-09-09T19:05:31.862Z,99.90
2018-09-09T19:08:00.131Z,99.90
2018-09-09T19:17:31.878Z,99.90
2018-09-09T19:20:00.102Z,99.90
2018-09-09T19:22:28.345Z,99.90
2018-09-09T19:24:56.618Z,99.90
2018-09-09T19:27:25.165Z,99.90
2018-09-09T19:29:53.394Z,99.90
2018-09-09T19:32:34.981Z,99.90
2018-09-09T19:35:04.123Z,99.90
2018-09-09T19:37:32.746Z,99.90
2018-09-09T19:40:01.564Z,99.90
2018-09-09T19:42:33.478Z,99.90
2018-09-09T19:45:02.223Z,99.90
2018-09-09T19:47:30.926Z,99.90
2018-09-09T19:49:59.533Z,99.90
2018-09-09T19:52:28.364Z,99.90
2018-09-09T19:54:57.251Z,99.90
2018-09-09T19:57:25.499Z,99.90
2018-09-09T19:59:53.803Z,99.90
2018-09-09T20:02:22.057Z,99.90
2018-09-09T20:04:50.451Z,99.90
2018-09-09T20:07:18.757Z,99.90
2018-09-09T20:09:47.007Z,99.90
2018-09-09T20:12:15.283Z,99.90
2018-09-09T20:14:44.121Z,99.90
2018-09-09T20:17:12.853Z,99.90
2018-09-09T20:19:41.098Z,99.90
2018-09-09T20:22:11.378Z,99.90
2018-09-09T20:24:39.701Z,99.90
2018-09-09T20:27:08.531Z,99.90
2018-09-09T20:29:36.800Z,99.90
2018-09-09T20:32:05.437Z,99.90
2018-09-09T20:34:33.698Z,99.90
2018-09-09T20:37:02.430Z,99.90
2018-09-09T20:39:31.487Z,99.90
2018-09-09T20:42:00.344Z,99.90
2018-09-09T20:44:28.614Z,99.90
2018-09-09T20:46:56.850Z,99.90
2018-09-09T20:49:25.423Z,99.90
2018-09-09T20:51:53.666Z,99.90
2018-09-09T20:54:22.386Z,99.90
2018-09-09T20:56:50.649Z,99.90
2018-09-09T20:59:18.865Z,99.90
2018-09-09T21:01:47.125Z,99.90
2018-09-09T21:04:15.334Z,99.90
2018-09-09T21:06:44.246Z,99.90
2018-09-09T21:09:13.326Z,99.90
2018-09-09T21:11:41.806Z,99.90
2018-09-09T21:14:10.552Z,99.90
2018-09-09T21:16:39.008Z,99.90
2018-09-09T21:19:07.244Z,99.90
2018-09-09T21:21:35.645Z,99.90
2018-09-09T21:24:03.979Z,99.90
2018-09-09T21:26:32.194Z,99.90
2018-09-09T21:29:00.600Z,99.90
2018-09-09T21:31:29.433Z,99.90
2018-09-09T21:33:57.674Z,99.90
2018-09-09T21:36:26.323Z,99.90
2018-09-09T21:38:54.570Z,99.90
2018-09-09T21:41:23.245Z,99.90
2018-09-09T21:43:51.467Z,99.90
2018-09-09T21:46:19.697Z,99.90
2018-09-09T21:48:48.310Z,99.90
2018-09-09T21:51:16.566Z,99.90
2018-09-09T21:53:45.135Z,99.90
2018-09-09T21:56:13.766Z,99.90
2018-09-09T21:58:42.557Z,99.90
2018-09-09T22:01:16.286Z,99.90
2018-09-09T22:03:44.540Z,99.90
2018-09-09T22:06:13.317Z,99.90
2018-09-09T22:08:41.590Z,99.90
2018-09-09T22:11:10.040Z,99.90
2018-09-09T22:13:38.264Z,99.90
2018-09-09T22:16:07.230Z,99.90
2018-09-09T22:18:35.477Z,99.90
2018-09-09T22:21:03.754Z,99.90
2018-09-09T22:23:32.044Z,99.90
2018-09-09T22:26:00.278Z,99.90
2018-09-09T22:28:28.884Z,99.90
2018-09-09T22:30:57.171Z,99.90
2018-09-09T22:33:25.500Z,99.90
2018-09-09T22:35:53.993Z,99.90
2018-09-09T22:38:22.353Z,99.90
2018-09-09T22:40:51.325Z,99.90
2018-09-09T22:43:21.501Z,99.90
2018-09-09T22:45:55.274Z,99.90
2018-09-09T22:48:23.537Z,99.90
2018-09-09T22:50:52.118Z,99.90
2018-09-09T22:53:20.634Z,99.90
2018-09-09T22:55:48.937Z,99.90
2018-09-09T22:58:17.165Z,99.90
2018-09-09T23:00:45.457Z,99.90
2018-09-09T23:03:14.021Z,99.90
2018-09-09T23:05:42.478Z,99.90
2018-09-09T23:08:10.705Z,99.90
2018-09-09T23:10:38.931Z,99.90
2018-09-09T23:13:07.189Z,99.90
2018-09-09T23:15:36.042Z,99.90
2018-09-09T23:18:04.506Z,99.90
2018-09-09T23:20:33.181Z,99.90
2018-09-09T23:23:01.394Z,99.90
2018-09-09T23:25:29.616Z,99.90
2018-09-09T23:27:58.109Z,99.90
2018-09-09T23:30:26.338Z,99.90
2018-09-09T23:32:55.025Z,99.90
2018-09-09T23:35:23.229Z,99.90
2018-09-09T23:37:52.121Z,99.90
2018-09-09T23:40:20.770Z,99.90
2018-09-09T23:42:49.233Z,99.90
2018-09-09T23:45:17.469Z,99.90
2018-09-09T23:47:45.885Z,99.90
2018-09-09T23:50:14.316Z,99.90
2018-09-09T23:52:42.767Z,99.90
2018-09-09T23:55:10.994Z,99.90
2018-09-09T23:57:39.222Z,99.90
